sensor_id;sensor_type;location;lat;lon;timestamp;P1;durP1;ratioP1;P2;durP2;ratioP2
41667;SDS011;27356;50.920;5.350;2023-12-07T00:00:15;49.70;;;17.15;;
41667;SDS011;27356;50.920;5.350;2023-12-07T00:02:42;42.95;;;16.80;;
41667;SDS011;27356;50.920;5.350;2023-12-07T00:05:08;49.75;;;15.80;;
41667;SDS011;27356;50.920;5.350;2023-12-07T00:07:34;97.80;;;18.88;;
41667;SDS011;27356;50.920;5.350;2023-12-07T00:10:00;70.38;;;18.63;;
41667;SDS011;27356;50.920;5.350;2023-12-07T00:12:26;83.10;;;18.55;;
41667;SDS011;27356;50.920;5.350;2023-12-07T00:14:52;91.68;;;18.85;;
41667;SDS011;27356;50.920;5.350;2023-12-07T00:17:18;81.88;;;17.92;;
41667;SDS011;27356;50.920;5.350;2023-12-07T00:19:44;84.40;;;17.80;;
41667;SDS011;27356;50.920;5.350;2023-12-07T00:22:19;102.40;;;18.42;;
41667;SDS011;27356;50.920;5.350;2023-12-07T00:24:45;71.38;;;17.30;;
41667;SDS011;27356;50.920;5.350;2023-12-07T00:27:12;98.85;;;18.27;;
41667;SDS011;27356;50.920;5.350;2023-12-07T00:29:42;83.72;;;17.67;;
41667;SDS011;27356;50.920;5.350;2023-12-07T00:32:08;68.93;;;17.75;;
41667;SDS011;27356;50.920;5.350;2023-12-07T00:34:38;62.08;;;18.23;;
41667;SDS011;27356;50.920;5.350;2023-12-07T00:37:03;33.83;;;16.20;;
41667;SDS011;27356;50.920;5.350;2023-12-07T00:39:30;72.53;;;17.67;;
41667;SDS011;27356;50.920;5.350;2023-12-07T00:41:56;61.13;;;16.30;;
41667;SDS011;27356;50.920;5.350;2023-12-07T00:44:22;77.50;;;16.42;;
41667;SDS011;27356;50.920;5.350;2023-12-07T00:46:50;112.32;;;18.67;;
41667;SDS011;27356;50.920;5.350;2023-12-07T00:49:15;100.65;;;17.52;;
41667;SDS011;27356;50.920;5.350;2023-12-07T00:51:41;83.32;;;16.75;;
41667;SDS011;27356;50.920;5.350;2023-12-07T00:54:10;113.43;;;19.45;;
41667;SDS011;27356;50.920;5.350;2023-12-07T00:56:39;42.60;;;14.75;;
41667;SDS011;27356;50.920;5.350;2023-12-07T00:59:05;72.03;;;16.35;;
41667;SDS011;27356;50.920;5.350;2023-12-07T01:01:32;94.45;;;18.23;;
41667;SDS011;27356;50.920;5.350;2023-12-07T01:03:58;131.82;;;21.50;;
41667;SDS011;27356;50.920;5.350;2023-12-07T01:06:25;104.07;;;18.02;;
41667;SDS011;27356;50.920;5.350;2023-12-07T01:08:51;69.80;;;17.85;;
41667;SDS011;27356;50.920;5.350;2023-12-07T01:11:18;89.20;;;17.60;;
41667;SDS011;27356;50.920;5.350;2023-12-07T01:13:44;98.13;;;18.60;;
41667;SDS011;27356;50.920;5.350;2023-12-07T01:16:12;93.35;;;18.05;;
41667;SDS011;27356;50.920;5.350;2023-12-07T01:18:38;139.07;;;19.15;;
41667;SDS011;27356;50.920;5.350;2023-12-07T01:21:04;145.88;;;21.70;;
41667;SDS011;27356;50.920;5.350;2023-12-07T01:23:31;53.05;;;16.80;;
41667;SDS011;27356;50.920;5.350;2023-12-07T01:25:57;65.10;;;14.93;;
41667;SDS011;27356;50.920;5.350;2023-12-07T01:28:27;151.77;;;19.10;;
41667;SDS011;27356;50.920;5.350;2023-12-07T01:30:53;107.50;;;16.70;;
41667;SDS011;27356;50.920;5.350;2023-12-07T01:33:20;117.82;;;16.40;;
41667;SDS011;27356;50.920;5.350;2023-12-07T01:35:49;55.25;;;13.98;;
41667;SDS011;27356;50.920;5.350;2023-12-07T01:38:18;44.72;;;15.45;;
41667;SDS011;27356;50.920;5.350;2023-12-07T01:40:49;52.58;;;15.85;;
41667;SDS011;27356;50.920;5.350;2023-12-07T01:43:15;80.38;;;16.23;;
41667;SDS011;27356;50.920;5.350;2023-12-07T01:45:44;54.40;;;15.65;;
41667;SDS011;27356;50.920;5.350;2023-12-07T01:48:23;45.58;;;14.32;;
41667;SDS011;27356;50.920;5.350;2023-12-07T01:50:51;53.65;;;14.45;;
41667;SDS011;27356;50.920;5.350;2023-12-07T01:53:23;47.78;;;15.75;;
41667;SDS011;27356;50.920;5.350;2023-12-07T01:55:54;58.30;;;15.43;;
41667;SDS011;27356;50.920;5.350;2023-12-07T01:58:24;72.78;;;17.08;;
41667;SDS011;27356;50.920;5.350;2023-12-07T02:00:55;59.17;;;15.50;;
41667;SDS011;27356;50.920;5.350;2023-12-07T02:03:22;43.58;;;13.85;;
41667;SDS011;27356;50.920;5.350;2023-12-07T02:05:55;33.80;;;13.13;;
41667;SDS011;27356;50.920;5.350;2023-12-07T02:08:25;26.85;;;12.27;;
41667;SDS011;27356;50.920;5.350;2023-12-07T02:10:52;44.55;;;12.63;;
41667;SDS011;27356;50.920;5.350;2023-12-07T02:13:20;53.33;;;12.77;;
41667;SDS011;27356;50.920;5.350;2023-12-07T02:15:47;30.95;;;11.93;;
41667;SDS011;27356;50.920;5.350;2023-12-07T02:21:03;34.35;;;12.75;;
41667;SDS011;27356;50.920;5.350;2023-12-07T02:23:33;36.60;;;12.75;;
41667;SDS011;27356;50.920;5.350;2023-12-07T02:26:02;35.95;;;12.55;;
41667;SDS011;27356;50.920;5.350;2023-12-07T02:30:57;37.78;;;13.00;;
41667;SDS011;27356;50.920;5.350;2023-12-07T02:33:23;38.83;;;12.23;;
41667;SDS011;27356;50.920;5.350;2023-12-07T02:35:49;38.80;;;12.63;;
41667;SDS011;27356;50.920;5.350;2023-12-07T02:38:15;36.20;;;11.18;;
41667;SDS011;27356;50.920;5.350;2023-12-07T02:40:42;29.15;;;12.20;;
41667;SDS011;27356;50.920;5.350;2023-12-07T02:43:10;34.72;;;11.35;;
41667;SDS011;27356;50.920;5.350;2023-12-07T02:45:36;74.68;;;13.73;;
41667;SDS011;27356;50.920;5.350;2023-12-07T02:48:02;29.17;;;11.75;;
41667;SDS011;27356;50.920;5.350;2023-12-07T02:50:28;40.38;;;13.18;;
41667;SDS011;27356;50.920;5.350;2023-12-07T02:52:53;38.92;;;13.00;;
41667;SDS011;27356;50.920;5.350;2023-12-07T02:55:21;46.03;;;14.07;;
41667;SDS011;27356;50.920;5.350;2023-12-07T02:57:46;50.63;;;15.05;;
41667;SDS011;27356;50.920;5.350;2023-12-07T03:00:12;35.30;;;14.18;;
41667;SDS011;27356;50.920;5.350;2023-12-07T03:02:39;48.75;;;14.63;;
41667;SDS011;27356;50.920;5.350;2023-12-07T03:05:06;45.33;;;14.45;;
41667;SDS011;27356;50.920;5.350;2023-12-07T03:07:32;56.60;;;14.85;;
41667;SDS011;27356;50.920;5.350;2023-12-07T03:10:00;44.85;;;15.68;;
41667;SDS011;27356;50.920;5.350;2023-12-07T03:12:26;45.78;;;15.30;;
41667;SDS011;27356;50.920;5.350;2023-12-07T03:14:51;50.95;;;15.02;;
41667;SDS011;27356;50.920;5.350;2023-12-07T03:17:17;41.58;;;15.50;;
41667;SDS011;27356;50.920;5.350;2023-12-07T03:19:43;52.10;;;15.85;;
41667;SDS011;27356;50.920;5.350;2023-12-07T03:22:09;39.83;;;16.25;;
41667;SDS011;27356;50.920;5.350;2023-12-07T03:24:35;40.65;;;15.35;;
41667;SDS011;27356;50.920;5.350;2023-12-07T03:27:01;51.53;;;15.68;;
41667;SDS011;27356;50.920;5.350;2023-12-07T03:29:27;37.10;;;16.27;;
41667;SDS011;27356;50.920;5.350;2023-12-07T03:31:53;46.60;;;15.60;;
41667;SDS011;27356;50.920;5.350;2023-12-07T03:34:19;37.55;;;15.52;;
41667;SDS011;27356;50.920;5.350;2023-12-07T03:36:45;43.65;;;15.93;;
41667;SDS011;27356;50.920;5.350;2023-12-07T03:39:11;31.42;;;14.52;;
41667;SDS011;27356;50.920;5.350;2023-12-07T03:41:38;31.38;;;14.40;;
41667;SDS011;27356;50.920;5.350;2023-12-07T03:44:04;30.98;;;13.65;;
41667;SDS011;27356;50.920;5.350;2023-12-07T03:46:29;34.70;;;13.25;;
41667;SDS011;27356;50.920;5.350;2023-12-07T03:48:55;36.42;;;13.75;;
41667;SDS011;27356;50.920;5.350;2023-12-07T03:51:21;30.20;;;12.80;;
41667;SDS011;27356;50.920;5.350;2023-12-07T03:53:46;38.15;;;14.48;;
41667;SDS011;27356;50.920;5.350;2023-12-07T03:56:25;29.30;;;13.32;;
41667;SDS011;27356;50.920;5.350;2023-12-07T03:58:52;31.23;;;12.60;;
41667;SDS011;27356;50.920;5.350;2023-12-07T04:01:17;27.65;;;12.52;;
41667;SDS011;27356;50.920;5.350;2023-12-07T04:03:48;27.38;;;12.23;;
41667;SDS011;27356;50.920;5.350;2023-12-07T04:06:14;28.42;;;13.02;;
41667;SDS011;27356;50.920;5.350;2023-12-07T04:08:39;33.15;;;13.05;;
41667;SDS011;27356;50.920;5.350;2023-12-07T04:11:05;29.25;;;12.52;;
41667;SDS011;27356;50.920;5.350;2023-12-07T04:13:31;33.75;;;13.60;;
41667;SDS011;27356;50.920;5.350;2023-12-07T04:15:56;28.08;;;12.65;;
41667;SDS011;27356;50.920;5.350;2023-12-07T04:18:22;25.10;;;11.75;;
41667;SDS011;27356;50.920;5.350;2023-12-07T04:20:48;26.98;;;10.90;;
41667;SDS011;27356;50.920;5.350;2023-12-07T04:23:13;20.40;;;10.80;;
41667;SDS011;27356;50.920;5.350;2023-12-07T04:25:39;25.17;;;11.32;;
41667;SDS011;27356;50.920;5.350;2023-12-07T04:28:05;18.88;;;10.40;;
41667;SDS011;27356;50.920;5.350;2023-12-07T04:30:31;22.30;;;11.13;;
41667;SDS011;27356;50.920;5.350;2023-12-07T04:32:56;21.52;;;10.40;;
41667;SDS011;27356;50.920;5.350;2023-12-07T04:35:22;19.60;;;9.50;;
41667;SDS011;27356;50.920;5.350;2023-12-07T04:37:48;20.45;;;10.15;;
41667;SDS011;27356;50.920;5.350;2023-12-07T04:40:13;21.23;;;10.25;;
41667;SDS011;27356;50.920;5.350;2023-12-07T04:42:39;15.93;;;8.93;;
41667;SDS011;27356;50.920;5.350;2023-12-07T04:45:06;20.83;;;10.25;;
41667;SDS011;27356;50.920;5.350;2023-12-07T04:47:32;18.52;;;9.73;;
41667;SDS011;27356;50.920;5.350;2023-12-07T04:49:58;19.23;;;9.45;;
41667;SDS011;27356;50.920;5.350;2023-12-07T04:52:24;18.58;;;9.18;;
41667;SDS011;27356;50.920;5.350;2023-12-07T04:54:50;16.60;;;9.32;;
41667;SDS011;27356;50.920;5.350;2023-12-07T04:57:15;19.27;;;8.93;;
41667;SDS011;27356;50.920;5.350;2023-12-07T04:59:41;18.42;;;8.40;;
41667;SDS011;27356;50.920;5.350;2023-12-07T05:02:11;20.13;;;8.93;;
41667;SDS011;27356;50.920;5.350;2023-12-07T05:04:45;16.00;;;8.82;;
41667;SDS011;27356;50.920;5.350;2023-12-07T05:07:11;18.05;;;8.98;;
41667;SDS011;27356;50.920;5.350;2023-12-07T05:09:38;16.73;;;9.43;;
41667;SDS011;27356;50.920;5.350;2023-12-07T05:12:04;17.73;;;8.45;;
41667;SDS011;27356;50.920;5.350;2023-12-07T05:14:30;19.48;;;9.50;;
41667;SDS011;27356;50.920;5.350;2023-12-07T05:16:56;21.35;;;9.32;;
41667;SDS011;27356;50.920;5.350;2023-12-07T05:19:25;22.73;;;9.45;;
41667;SDS011;27356;50.920;5.350;2023-12-07T05:21:51;24.92;;;9.70;;
41667;SDS011;27356;50.920;5.350;2023-12-07T05:24:17;22.05;;;8.90;;
41667;SDS011;27356;50.920;5.350;2023-12-07T05:26:43;22.33;;;9.77;;
41667;SDS011;27356;50.920;5.350;2023-12-07T05:29:11;21.83;;;9.65;;
41667;SDS011;27356;50.920;5.350;2023-12-07T05:31:37;20.77;;;9.55;;
41667;SDS011;27356;50.920;5.350;2023-12-07T05:34:03;23.25;;;9.13;;
41667;SDS011;27356;50.920;5.350;2023-12-07T05:36:29;18.10;;;8.95;;
41667;SDS011;27356;50.920;5.350;2023-12-07T05:38:55;21.38;;;9.57;;
41667;SDS011;27356;50.920;5.350;2023-12-07T05:41:20;21.98;;;9.45;;
41667;SDS011;27356;50.920;5.350;2023-12-07T05:43:46;20.73;;;9.70;;
41667;SDS011;27356;50.920;5.350;2023-12-07T05:46:12;21.33;;;9.63;;
41667;SDS011;27356;50.920;5.350;2023-12-07T05:48:38;20.65;;;9.65;;
41667;SDS011;27356;50.920;5.350;2023-12-07T05:51:04;18.60;;;8.40;;
41667;SDS011;27356;50.920;5.350;2023-12-07T05:53:40;22.80;;;9.30;;
41667;SDS011;27356;50.920;5.350;2023-12-07T05:56:06;18.13;;;9.18;;
41667;SDS011;27356;50.920;5.350;2023-12-07T05:58:32;19.38;;;9.60;;
41667;SDS011;27356;50.920;5.350;2023-12-07T06:00:58;21.35;;;10.00;;
41667;SDS011;27356;50.920;5.350;2023-12-07T06:03:25;19.63;;;9.48;;
41667;SDS011;27356;50.920;5.350;2023-12-07T06:05:51;17.42;;;9.75;;
41667;SDS011;27356;50.920;5.350;2023-12-07T06:08:17;22.55;;;10.73;;
41667;SDS011;27356;50.920;5.350;2023-12-07T06:10:42;21.02;;;10.75;;
41667;SDS011;27356;50.920;5.350;2023-12-07T06:13:08;24.92;;;11.23;;
41667;SDS011;27356;50.920;5.350;2023-12-07T06:15:35;22.50;;;11.00;;
41667;SDS011;27356;50.920;5.350;2023-12-07T06:18:01;23.80;;;11.60;;
41667;SDS011;27356;50.920;5.350;2023-12-07T06:20:47;26.85;;;12.07;;
41667;SDS011;27356;50.920;5.350;2023-12-07T06:23:13;24.85;;;11.48;;
41667;SDS011;27356;50.920;5.350;2023-12-07T06:25:39;19.52;;;10.35;;
41667;SDS011;27356;50.920;5.350;2023-12-07T06:28:05;20.90;;;11.13;;
41667;SDS011;27356;50.920;5.350;2023-12-07T06:30:31;20.08;;;9.80;;
41667;SDS011;27356;50.920;5.350;2023-12-07T06:32:57;22.48;;;10.45;;
41667;SDS011;27356;50.920;5.350;2023-12-07T06:35:23;17.90;;;10.45;;
41667;SDS011;27356;50.920;5.350;2023-12-07T06:37:49;19.75;;;10.27;;
41667;SDS011;27356;50.920;5.350;2023-12-07T06:40:15;17.38;;;10.48;;
41667;SDS011;27356;50.920;5.350;2023-12-07T06:42:41;18.75;;;11.18;;
41667;SDS011;27356;50.920;5.350;2023-12-07T06:45:08;18.13;;;10.90;;
41667;SDS011;27356;50.920;5.350;2023-12-07T06:47:39;23.88;;;10.70;;
41667;SDS011;27356;50.920;5.350;2023-12-07T06:50:07;20.70;;;12.07;;
41667;SDS011;27356;50.920;5.350;2023-12-07T06:52:35;18.92;;;10.63;;
41667;SDS011;27356;50.920;5.350;2023-12-07T06:55:01;22.83;;;10.52;;
41667;SDS011;27356;50.920;5.350;2023-12-07T06:57:28;18.38;;;11.35;;
41667;SDS011;27356;50.920;5.350;2023-12-07T07:00:00;19.17;;;9.68;;
41667;SDS011;27356;50.920;5.350;2023-12-07T07:02:31;24.90;;;12.25;;
41667;SDS011;27356;50.920;5.350;2023-12-07T07:04:56;21.58;;;11.73;;
41667;SDS011;27356;50.920;5.350;2023-12-07T07:07:22;21.15;;;11.23;;
41667;SDS011;27356;50.920;5.350;2023-12-07T07:09:48;22.63;;;11.65;;
41667;SDS011;27356;50.920;5.350;2023-12-07T07:12:14;19.85;;;10.70;;
41667;SDS011;27356;50.920;5.350;2023-12-07T07:14:39;23.05;;;11.02;;
41667;SDS011;27356;50.920;5.350;2023-12-07T07:17:07;20.58;;;10.82;;
41667;SDS011;27356;50.920;5.350;2023-12-07T07:19:33;16.98;;;10.13;;
41667;SDS011;27356;50.920;5.350;2023-12-07T07:21:58;19.38;;;10.95;;
41667;SDS011;27356;50.920;5.350;2023-12-07T07:24:24;21.88;;;11.18;;
41667;SDS011;27356;50.920;5.350;2023-12-07T07:26:50;21.00;;;10.80;;
41667;SDS011;27356;50.920;5.350;2023-12-07T07:29:15;20.23;;;11.10;;
41667;SDS011;27356;50.920;5.350;2023-12-07T07:31:41;21.67;;;10.88;;
41667;SDS011;27356;50.920;5.350;2023-12-07T07:34:06;22.95;;;10.43;;
41667;SDS011;27356;50.920;5.350;2023-12-07T07:36:33;24.55;;;10.90;;
41667;SDS011;27356;50.920;5.350;2023-12-07T07:38:58;17.27;;;10.45;;
41667;SDS011;27356;50.920;5.350;2023-12-07T07:41:24;19.95;;;11.40;;
41667;SDS011;27356;50.920;5.350;2023-12-07T07:43:50;21.65;;;11.55;;
41667;SDS011;27356;50.920;5.350;2023-12-07T07:46:15;21.88;;;11.60;;
41667;SDS011;27356;50.920;5.350;2023-12-07T07:48:41;24.05;;;11.68;;
41667;SDS011;27356;50.920;5.350;2023-12-07T07:51:07;21.95;;;10.90;;
41667;SDS011;27356;50.920;5.350;2023-12-07T07:53:33;19.77;;;10.68;;
41667;SDS011;27356;50.920;5.350;2023-12-07T07:55:58;21.42;;;11.32;;
41667;SDS011;27356;50.920;5.350;2023-12-07T07:58:24;22.55;;;11.50;;
41667;SDS011;27356;50.920;5.350;2023-12-07T08:00:50;21.13;;;10.93;;
41667;SDS011;27356;50.920;5.350;2023-12-07T08:03:17;17.83;;;10.07;;
41667;SDS011;27356;50.920;5.350;2023-12-07T08:05:42;23.13;;;10.80;;
41667;SDS011;27356;50.920;5.350;2023-12-07T08:08:08;21.05;;;10.20;;
41667;SDS011;27356;50.920;5.350;2023-12-07T08:10:35;18.58;;;11.25;;
41667;SDS011;27356;50.920;5.350;2023-12-07T08:13:00;23.08;;;11.50;;
41667;SDS011;27356;50.920;5.350;2023-12-07T08:15:26;20.23;;;11.43;;
41667;SDS011;27356;50.920;5.350;2023-12-07T08:17:52;21.20;;;10.32;;
41667;SDS011;27356;50.920;5.350;2023-12-07T08:20:18;20.20;;;10.98;;
41667;SDS011;27356;50.920;5.350;2023-12-07T08:22:43;18.05;;;10.45;;
41667;SDS011;27356;50.920;5.350;2023-12-07T08:25:10;25.02;;;9.73;;
41667;SDS011;27356;50.920;5.350;2023-12-07T08:27:36;20.65;;;10.65;;
41667;SDS011;27356;50.920;5.350;2023-12-07T08:30:03;17.23;;;10.20;;
41667;SDS011;27356;50.920;5.350;2023-12-07T08:32:29;19.20;;;10.25;;
41667;SDS011;27356;50.920;5.350;2023-12-07T08:34:55;18.50;;;10.55;;
41667;SDS011;27356;50.920;5.350;2023-12-07T08:37:21;26.27;;;11.07;;
41667;SDS011;27356;50.920;5.350;2023-12-07T08:39:47;19.02;;;10.52;;
41667;SDS011;27356;50.920;5.350;2023-12-07T08:42:13;17.23;;;10.43;;
41667;SDS011;27356;50.920;5.350;2023-12-07T08:44:39;19.00;;;10.48;;
41667;SDS011;27356;50.920;5.350;2023-12-07T08:47:04;25.55;;;11.18;;
41667;SDS011;27356;50.920;5.350;2023-12-07T08:49:30;20.13;;;10.40;;
41667;SDS011;27356;50.920;5.350;2023-12-07T08:51:56;19.63;;;9.90;;
41667;SDS011;27356;50.920;5.350;2023-12-07T08:54:22;16.90;;;10.60;;
41667;SDS011;27356;50.920;5.350;2023-12-07T08:56:48;19.20;;;9.98;;
41667;SDS011;27356;50.920;5.350;2023-12-07T08:59:14;20.08;;;10.30;;
41667;SDS011;27356;50.920;5.350;2023-12-07T09:01:40;20.33;;;10.52;;
41667;SDS011;27356;50.920;5.350;2023-12-07T09:04:06;18.92;;;9.88;;
41667;SDS011;27356;50.920;5.350;2023-12-07T09:06:35;18.35;;;9.88;;
41667;SDS011;27356;50.920;5.350;2023-12-07T09:09:10;18.05;;;9.75;;
41667;SDS011;27356;50.920;5.350;2023-12-07T09:11:36;14.25;;;8.77;;
41667;SDS011;27356;50.920;5.350;2023-12-07T09:14:02;15.27;;;9.13;;
41667;SDS011;27356;50.920;5.350;2023-12-07T09:16:28;16.15;;;9.40;;
41667;SDS011;27356;50.920;5.350;2023-12-07T09:18:54;14.38;;;8.80;;
41667;SDS011;27356;50.920;5.350;2023-12-07T09:21:21;15.80;;;9.00;;
41667;SDS011;27356;50.920;5.350;2023-12-07T09:23:46;17.55;;;8.77;;
41667;SDS011;27356;50.920;5.350;2023-12-07T09:26:12;16.73;;;8.15;;
41667;SDS011;27356;50.920;5.350;2023-12-07T09:28:39;17.08;;;8.45;;
41667;SDS011;27356;50.920;5.350;2023-12-07T09:31:05;12.57;;;8.95;;
41667;SDS011;27356;50.920;5.350;2023-12-07T09:33:31;13.48;;;7.63;;
41667;SDS011;27356;50.920;5.350;2023-12-07T09:35:57;15.07;;;7.88;;
41667;SDS011;27356;50.920;5.350;2023-12-07T09:38:22;16.58;;;8.38;;
41667;SDS011;27356;50.920;5.350;2023-12-07T09:40:52;17.73;;;9.35;;
41667;SDS011;27356;50.920;5.350;2023-12-07T09:43:18;13.45;;;8.15;;
41667;SDS011;27356;50.920;5.350;2023-12-07T09:45:44;16.73;;;9.70;;
41667;SDS011;27356;50.920;5.350;2023-12-07T09:48:10;13.77;;;8.80;;
41667;SDS011;27356;50.920;5.350;2023-12-07T09:50:36;15.63;;;8.57;;
41667;SDS011;27356;50.920;5.350;2023-12-07T09:53:02;14.13;;;8.23;;
41667;SDS011;27356;50.920;5.350;2023-12-07T09:55:28;11.95;;;7.72;;
41667;SDS011;27356;50.920;5.350;2023-12-07T09:57:55;15.00;;;7.18;;
41667;SDS011;27356;50.920;5.350;2023-12-07T10:00:23;11.73;;;7.80;;
41667;SDS011;27356;50.920;5.350;2023-12-07T10:02:49;12.85;;;7.53;;
41667;SDS011;27356;50.920;5.350;2023-12-07T10:05:20;12.57;;;7.25;;
41667;SDS011;27356;50.920;5.350;2023-12-07T10:07:46;12.55;;;7.68;;
41667;SDS011;27356;50.920;5.350;2023-12-07T10:10:13;11.48;;;7.10;;
41667;SDS011;27356;50.920;5.350;2023-12-07T10:12:47;13.70;;;7.43;;
41667;SDS011;27356;50.920;5.350;2023-12-07T10:15:18;12.93;;;7.57;;
41667;SDS011;27356;50.920;5.350;2023-12-07T10:17:46;10.90;;;6.00;;
41667;SDS011;27356;50.920;5.350;2023-12-07T10:20:15;11.57;;;6.63;;
41667;SDS011;27356;50.920;5.350;2023-12-07T10:22:42;15.32;;;7.15;;
41667;SDS011;27356;50.920;5.350;2023-12-07T10:25:10;10.38;;;6.22;;
41667;SDS011;27356;50.920;5.350;2023-12-07T10:27:37;10.32;;;7.55;;
41667;SDS011;27356;50.920;5.350;2023-12-07T10:30:06;14.20;;;7.10;;
41667;SDS011;27356;50.920;5.350;2023-12-07T10:32:37;10.63;;;6.50;;
41667;SDS011;27356;50.920;5.350;2023-12-07T10:35:05;9.93;;;6.40;;
41667;SDS011;27356;50.920;5.350;2023-12-07T10:37:32;9.38;;;6.18;;
41667;SDS011;27356;50.920;5.350;2023-12-07T10:39:58;13.55;;;6.38;;
41667;SDS011;27356;50.920;5.350;2023-12-07T10:42:24;10.63;;;6.65;;
41667;SDS011;27356;50.920;5.350;2023-12-07T10:44:53;15.20;;;6.72;;
41667;SDS011;27356;50.920;5.350;2023-12-07T10:47:23;13.15;;;6.82;;
41667;SDS011;27356;50.920;5.350;2023-12-07T10:49:50;12.98;;;7.03;;
41667;SDS011;27356;50.920;5.350;2023-12-07T10:52:20;7.60;;;5.68;;
41667;SDS011;27356;50.920;5.350;2023-12-07T10:55:10;16.05;;;6.80;;
41667;SDS011;27356;50.920;5.350;2023-12-07T10:57:41;12.95;;;5.88;;
41667;SDS011;27356;50.920;5.350;2023-12-07T11:00:07;11.13;;;6.20;;
41667;SDS011;27356;50.920;5.350;2023-12-07T11:02:34;12.10;;;6.97;;
41667;SDS011;27356;50.920;5.350;2023-12-07T11:05:01;13.65;;;6.70;;
41667;SDS011;27356;50.920;5.350;2023-12-07T11:07:31;11.65;;;6.47;;
41667;SDS011;27356;50.920;5.350;2023-12-07T11:13:30;13.68;;;6.20;;
41667;SDS011;27356;50.920;5.350;2023-12-07T11:16:00;14.88;;;6.88;;
41667;SDS011;27356;50.920;5.350;2023-12-07T11:18:28;10.32;;;5.78;;
41667;SDS011;27356;50.920;5.350;2023-12-07T11:20:54;9.98;;;5.97;;
41667;SDS011;27356;50.920;5.350;2023-12-07T11:23:21;11.38;;;6.10;;
41667;SDS011;27356;50.920;5.350;2023-12-07T11:25:47;11.98;;;6.57;;
41667;SDS011;27356;50.920;5.350;2023-12-07T11:28:15;10.23;;;5.93;;
41667;SDS011;27356;50.920;5.350;2023-12-07T11:30:42;7.32;;;5.00;;
41667;SDS011;27356;50.920;5.350;2023-12-07T11:33:09;13.30;;;6.70;;
41667;SDS011;27356;50.920;5.350;2023-12-07T11:38:27;11.88;;;5.85;;
41667;SDS011;27356;50.920;5.350;2023-12-07T11:40:53;11.32;;;6.40;;
41667;SDS011;27356;50.920;5.350;2023-12-07T11:45:58;7.82;;;5.40;;
41667;SDS011;27356;50.920;5.350;2023-12-07T11:48:25;13.32;;;5.97;;
41667;SDS011;27356;50.920;5.350;2023-12-07T11:53:31;12.68;;;5.72;;
41667;SDS011;27356;50.920;5.350;2023-12-07T11:56:04;13.10;;;5.72;;
41667;SDS011;27356;50.920;5.350;2023-12-07T11:58:32;10.98;;;5.38;;
41667;SDS011;27356;50.920;5.350;2023-12-07T12:00:59;9.60;;;5.35;;
41667;SDS011;27356;50.920;5.350;2023-12-07T12:03:26;9.50;;;5.85;;
41667;SDS011;27356;50.920;5.350;2023-12-07T12:05:53;11.07;;;5.57;;
41667;SDS011;27356;50.920;5.350;2023-12-07T12:08:19;12.32;;;5.55;;
41667;SDS011;27356;50.920;5.350;2023-12-07T12:10:46;8.52;;;5.70;;
41667;SDS011;27356;50.920;5.350;2023-12-07T12:13:15;9.13;;;5.40;;
41667;SDS011;27356;50.920;5.350;2023-12-07T12:15:41;8.60;;;5.68;;
41667;SDS011;27356;50.920;5.350;2023-12-07T12:18:08;9.23;;;5.70;;
41667;SDS011;27356;50.920;5.350;2023-12-07T12:20:34;12.00;;;5.53;;
41667;SDS011;27356;50.920;5.350;2023-12-07T12:23:00;8.32;;;5.70;;
41667;SDS011;27356;50.920;5.350;2023-12-07T12:25:27;8.05;;;5.68;;
41667;SDS011;27356;50.920;5.350;2023-12-07T12:27:58;12.15;;;6.05;;
41667;SDS011;27356;50.920;5.350;2023-12-07T12:30:27;10.55;;;5.32;;
41667;SDS011;27356;50.920;5.350;2023-12-07T12:32:55;8.98;;;5.22;;
41667;SDS011;27356;50.920;5.350;2023-12-07T12:35:21;9.43;;;5.28;;
41667;SDS011;27356;50.920;5.350;2023-12-07T12:37:48;11.25;;;5.10;;
41667;SDS011;27356;50.920;5.350;2023-12-07T12:40:15;9.00;;;5.05;;
41667;SDS011;27356;50.920;5.350;2023-12-07T12:42:46;6.85;;;4.80;;
41667;SDS011;27356;50.920;5.350;2023-12-07T12:45:13;13.80;;;5.20;;
41667;SDS011;27356;50.920;5.350;2023-12-07T12:47:40;8.30;;;4.80;;
41667;SDS011;27356;50.920;5.350;2023-12-07T12:50:08;10.13;;;4.88;;
41667;SDS011;27356;50.920;5.350;2023-12-07T12:52:34;7.45;;;4.78;;
41667;SDS011;27356;50.920;5.350;2023-12-07T12:55:01;8.60;;;5.38;;
41667;SDS011;27356;50.920;5.350;2023-12-07T12:57:27;7.30;;;4.63;;
41667;SDS011;27356;50.920;5.350;2023-12-07T12:59:54;7.00;;;4.93;;
41667;SDS011;27356;50.920;5.350;2023-12-07T13:02:28;9.30;;;4.78;;
41667;SDS011;27356;50.920;5.350;2023-12-07T13:05:01;9.00;;;4.68;;
41667;SDS011;27356;50.920;5.350;2023-12-07T13:07:27;7.30;;;4.60;;
41667;SDS011;27356;50.920;5.350;2023-12-07T13:09:53;8.88;;;4.75;;
41667;SDS011;27356;50.920;5.350;2023-12-07T13:12:19;8.85;;;4.40;;
41667;SDS011;27356;50.920;5.350;2023-12-07T13:14:47;7.78;;;5.13;;
41667;SDS011;27356;50.920;5.350;2023-12-07T13:17:13;8.15;;;4.68;;
41667;SDS011;27356;50.920;5.350;2023-12-07T13:19:39;10.68;;;4.97;;
41667;SDS011;27356;50.920;5.350;2023-12-07T13:22:04;9.32;;;5.13;;
41667;SDS011;27356;50.920;5.350;2023-12-07T13:24:31;9.50;;;5.07;;
41667;SDS011;27356;50.920;5.350;2023-12-07T13:26:57;6.90;;;5.25;;
41667;SDS011;27356;50.920;5.350;2023-12-07T13:29:25;5.55;;;4.43;;
41667;SDS011;27356;50.920;5.350;2023-12-07T13:31:51;7.35;;;5.07;;
41667;SDS011;27356;50.920;5.350;2023-12-07T13:34:17;7.82;;;4.43;;
41667;SDS011;27356;50.920;5.350;2023-12-07T13:36:43;9.40;;;4.85;;
41667;SDS011;27356;50.920;5.350;2023-12-07T13:39:08;6.95;;;4.45;;
41667;SDS011;27356;50.920;5.350;2023-12-07T13:41:35;6.25;;;4.50;;
41667;SDS011;27356;50.920;5.350;2023-12-07T13:44:01;8.60;;;4.60;;
41667;SDS011;27356;50.920;5.350;2023-12-07T13:46:26;8.75;;;3.75;;
41667;SDS011;27356;50.920;5.350;2023-12-07T13:48:52;7.28;;;4.07;;
41667;SDS011;27356;50.920;5.350;2023-12-07T13:51:18;7.15;;;4.18;;
41667;SDS011;27356;50.920;5.350;2023-12-07T13:53:45;7.55;;;4.30;;
41667;SDS011;27356;50.920;5.350;2023-12-07T13:56:11;8.93;;;4.68;;
41667;SDS011;27356;50.920;5.350;2023-12-07T13:58:37;5.10;;;3.75;;
41667;SDS011;27356;50.920;5.350;2023-12-07T14:01:04;6.38;;;3.88;;
41667;SDS011;27356;50.920;5.350;2023-12-07T14:03:30;8.93;;;4.53;;
41667;SDS011;27356;50.920;5.350;2023-12-07T14:05:56;10.65;;;3.90;;
41667;SDS011;27356;50.920;5.350;2023-12-07T14:08:22;7.35;;;4.53;;
41667;SDS011;27356;50.920;5.350;2023-12-07T14:10:48;10.85;;;4.68;;
41667;SDS011;27356;50.920;5.350;2023-12-07T14:13:14;12.05;;;5.45;;
41667;SDS011;27356;50.920;5.350;2023-12-07T14:15:42;10.95;;;5.07;;
41667;SDS011;27356;50.920;5.350;2023-12-07T14:18:08;7.47;;;5.03;;
41667;SDS011;27356;50.920;5.350;2023-12-07T14:20:34;13.98;;;5.25;;
41667;SDS011;27356;50.920;5.350;2023-12-07T14:23:00;15.38;;;6.15;;
41667;SDS011;27356;50.920;5.350;2023-12-07T14:25:29;9.02;;;5.10;;
41667;SDS011;27356;50.920;5.350;2023-12-07T14:27:55;13.25;;;5.30;;
41667;SDS011;27356;50.920;5.350;2023-12-07T14:30:21;7.28;;;4.75;;
41667;SDS011;27356;50.920;5.350;2023-12-07T14:32:47;12.70;;;5.18;;
41667;SDS011;27356;50.920;5.350;2023-12-07T14:35:17;8.90;;;4.82;;
41667;SDS011;27356;50.920;5.350;2023-12-07T14:37:43;8.45;;;5.05;;
41667;SDS011;27356;50.920;5.350;2023-12-07T14:40:09;12.68;;;5.05;;
41667;SDS011;27356;50.920;5.350;2023-12-07T14:42:36;8.15;;;4.93;;